createdAt,value
2022-09-12T00:02:36.609Z,9.98
2022-09-12T00:07:36.589Z,9.93
2022-09-12T00:12:36.581Z,9.85
2022-09-12T00:17:36.583Z,9.78
2022-09-12T00:22:36.563Z,9.77
2022-09-12T00:27:36.574Z,9.77
2022-09-12T00:32:36.564Z,9.75
2022-09-12T00:37:36.563Z,9.6
2022-09-12T00:42:36.540Z,9.52
2022-09-12T00:47:36.551Z,9.49
2022-09-12T00:52:36.552Z,9.41
2022-09-12T00:57:36.534Z,9.32
2022-09-12T01:02:36.534Z,9.29
2022-09-12T01:07:39.841Z,9.23
2022-09-12T01:12:36.541Z,9.15
2022-09-12T01:17:36.515Z,9.08
2022-09-12T01:22:36.518Z,9.05
2022-09-12T01:27:36.517Z,8.98
2022-09-12T01:32:36.524Z,9
2022-09-12T01:37:36.499Z,8.93
2022-09-12T01:42:36.494Z,8.86
2022-09-12T01:47:36.493Z,8.83
2022-09-12T01:52:36.494Z,8.75
2022-09-12T01:57:36.479Z,8.77
2022-09-12T02:02:36.477Z,8.67
2022-09-12T02:07:36.478Z,8.67
2022-09-12T02:12:36.469Z,8.59
2022-09-12T02:17:36.466Z,8.57
2022-09-12T02:22:36.459Z,8.57
2022-09-12T02:27:36.461Z,8.57
2022-09-12T02:32:36.444Z,8.62
2022-09-12T02:37:36.442Z,8.66
2022-09-12T02:42:36.435Z,8.67
2022-09-12T02:47:36.443Z,8.67
2022-09-12T02:52:36.428Z,8.66
2022-09-12T02:57:36.428Z,8.58
2022-09-12T03:02:36.436Z,8.49
2022-09-12T03:07:36.406Z,8.39
2022-09-12T03:12:36.406Z,8.39
2022-09-12T03:37:36.383Z,8.16
2022-09-12T03:52:36.397Z,8.07
2022-09-12T04:27:36.351Z,8.57
2022-09-12T04:32:36.352Z,8.62
2022-09-12T04:37:36.343Z,8.67
2022-09-12T04:42:36.339Z,8.74
2022-09-12T04:47:36.323Z,8.8
2022-09-12T04:52:36.308Z,8.85
2022-09-12T04:57:36.324Z,9.01
2022-09-12T05:02:36.349Z,9.09
2022-09-12T05:07:36.314Z,9.23
2022-09-12T05:12:36.306Z,9.43
2022-09-12T05:17:36.303Z,9.77
2022-09-12T05:22:36.299Z,9.88
2022-09-12T05:27:36.286Z,10.18
2022-09-12T05:32:36.285Z,10.42
2022-09-12T05:37:36.308Z,10.73
2022-09-12T05:42:36.289Z,10.99
2022-09-12T05:47:36.274Z,11.09
2022-09-12T05:52:36.278Z,11.28
2022-09-12T05:57:36.263Z,11.47
2022-09-12T06:02:36.285Z,11.66
2022-09-12T06:07:36.264Z,11.95
2022-09-12T06:12:36.241Z,12.12
2022-09-12T06:17:36.245Z,12.32
2022-09-12T06:22:36.235Z,12.58
2022-09-12T06:27:36.237Z,12.88
2022-09-12T06:32:36.226Z,13.19
2022-09-12T06:37:36.219Z,13.36
2022-09-12T06:42:36.207Z,13.6
2022-09-12T06:47:36.200Z,13.86
2022-09-12T06:52:36.199Z,14.11
2022-09-12T06:57:36.209Z,14.27
2022-09-12T07:02:36.229Z,14.55
2022-09-12T07:12:36.194Z,14.9
2022-09-12T07:17:36.169Z,15.03
2022-09-12T07:22:36.164Z,15.21
2022-09-12T07:42:36.152Z,15.72
2022-09-12T07:47:36.125Z,15.91
2022-09-12T07:52:36.125Z,16.05
2022-09-12T07:57:36.122Z,16.15
2022-09-12T08:22:36.090Z,16.82
2022-09-12T08:27:36.098Z,17.05
2022-09-12T08:32:36.095Z,17.2
2022-09-12T08:37:37.098Z,17.26
2022-09-12T08:42:36.061Z,17.39
2022-09-12T08:47:36.054Z,17.52
2022-09-12T08:52:36.060Z,17.69
2022-09-12T08:57:36.054Z,17.75
2022-09-12T09:02:36.058Z,17.88
2022-09-12T09:07:36.036Z,18.01
2022-09-12T09:12:36.042Z,18.1
2022-09-12T09:17:36.025Z,18.15
2022-09-12T09:22:36.288Z,18.14
2022-09-12T09:27:40.744Z,18.21
2022-09-12T09:32:35.999Z,18.39
2022-09-12T09:37:35.989Z,18.45
2022-09-12T09:42:35.996Z,18.57
2022-09-12T09:47:35.974Z,18.63
2022-09-12T09:52:36.001Z,18.66
2022-09-12T09:57:35.982Z,18.7
2022-09-12T10:02:36.027Z,18.85
2022-09-12T10:07:35.965Z,19.16
2022-09-12T10:12:35.952Z,19.29
2022-09-12T10:17:35.971Z,19.42
2022-09-12T10:22:35.944Z,19.5
2022-09-12T10:27:35.940Z,19.48
2022-09-12T10:32:35.965Z,19.6
2022-09-12T10:37:35.919Z,19.5
2022-09-12T10:42:35.921Z,19.59
2022-09-12T10:47:35.903Z,19.59
2022-09-12T10:52:35.904Z,19.68
2022-09-12T10:57:35.890Z,19.83
2022-09-12T11:02:35.932Z,19.87
2022-09-12T11:07:35.903Z,19.87
2022-09-12T11:12:35.883Z,20.13
2022-09-12T11:17:35.909Z,20.23
2022-09-12T11:22:35.881Z,20.29
2022-09-12T11:27:35.865Z,20.34
2022-09-12T11:32:35.855Z,20.39
2022-09-12T11:37:35.848Z,20.43
2022-09-12T11:52:35.838Z,20.57
2022-09-12T11:57:35.837Z,20.57
2022-09-12T12:02:35.850Z,20.46
2022-09-12T12:07:35.807Z,20.41
2022-09-12T12:12:35.791Z,20.38
2022-09-12T12:17:35.797Z,20.4
2022-09-12T12:27:35.773Z,20.85
2022-09-12T12:32:35.779Z,21
2022-09-12T12:37:35.767Z,21
2022-09-12T12:42:35.768Z,20.98
2022-09-12T12:47:35.771Z,21.19
2022-09-12T12:52:35.745Z,21.34
2022-09-12T12:57:35.749Z,21.36
2022-09-12T13:02:35.890Z,21.47
2022-09-12T13:07:35.733Z,21.72
2022-09-12T13:12:35.734Z,21.9
2022-09-12T13:17:35.729Z,22.06
2022-09-12T13:22:35.709Z,21.95
2022-09-12T13:32:35.692Z,22.1
2022-09-12T13:37:35.698Z,22.24
2022-09-12T13:42:35.678Z,22.36
2022-09-12T13:52:35.694Z,22.49
2022-09-12T13:57:35.650Z,22.67
2022-09-12T14:02:35.696Z,22.64
2022-09-12T14:12:35.642Z,22.49
2022-09-12T14:17:35.637Z,22.54
2022-09-12T14:22:35.628Z,22.56
2022-09-12T14:32:35.621Z,22.39
2022-09-12T14:37:35.608Z,22.39
2022-09-12T14:42:35.602Z,22.39
2022-09-12T14:47:35.618Z,22.31
2022-09-12T14:52:35.596Z,22.39
2022-09-12T14:57:35.581Z,22.44
2022-09-12T15:02:35.572Z,22.36
2022-09-12T15:07:35.585Z,22.29
2022-09-12T15:12:35.567Z,22.21
2022-09-12T15:17:35.553Z,22.02
2022-09-12T15:22:35.586Z,22
2022-09-12T15:27:35.537Z,22.01
2022-09-12T15:32:35.531Z,21.99
2022-09-12T15:37:35.546Z,21.91
2022-09-12T15:42:35.531Z,21.76
2022-09-12T15:47:35.530Z,21.56
2022-09-12T15:52:35.522Z,21.41
2022-09-12T15:57:35.499Z,21.28
2022-09-12T16:02:35.532Z,21.24
2022-09-12T16:07:35.529Z,21.17
2022-09-12T16:12:35.490Z,21.13
2022-09-12T16:17:35.494Z,21.11
2022-09-12T16:22:35.461Z,20.98
2022-09-12T16:27:35.462Z,20.91
2022-09-12T16:32:35.467Z,20.63
2022-09-12T16:37:35.460Z,20.43
2022-09-12T16:42:35.433Z,20.29
2022-09-12T16:47:35.425Z,20.19
2022-09-12T16:52:35.449Z,19.93
2022-09-12T16:57:35.420Z,19.66
2022-09-12T17:02:35.457Z,19.45
2022-09-12T17:07:35.409Z,19.23
2022-09-12T17:12:35.403Z,19.05
2022-09-12T17:17:35.389Z,18.9
2022-09-12T17:22:35.415Z,18.77
2022-09-12T17:27:35.381Z,18.59
2022-09-12T17:32:35.380Z,18.4
2022-09-12T17:37:35.377Z,18.19
2022-09-12T17:42:35.357Z,17.98
2022-09-12T17:47:35.354Z,17.73
2022-09-12T17:52:35.360Z,17.61
2022-09-12T17:57:35.341Z,17.43
